Latest Coastal Weather Observations for St Helens

IDT60701

Issued at 11:12 am EDT Thursday 8 December 2016 (issued every 10 minutes, with the page automatically refreshed every 10 minutes)

About coastal observations | Map of coastal stations | Coastal observations for TAS | Marine services | Other Formats
Station Details ID: 092120 Name: ST HELENS AERODROME Lat: -41.34 Lon: 148.28 Height: 48.0 m
Data from the previous 72 hours. | See also: Recent months at St Helens
Date/Time
EDT
Temp
°C
Wind Pressure Rain since
9am
mm
Weather Cloud Vis
km
Sea
Height
m
Swell
Dir  Spd
kts
Gust
kts
hPa Trend Height
m
Period
s
Dir
08/11:00am 15.6 N 10 15 995.4 - 7.2 - Cloudy 10 - - - -
08/10:30am 15.6 NNW 12 20 996.8 - 5.2 - Partly cloudy 6 - - - -
08/10:00am 15.8 NNW 10 18 997.7 - 3.2 - Partly cloudy 8 - - - -
08/09:30am 15.8 NNW 10 16 998.6 - 1.6 - Partly cloudy 10 - - - -
08/09:15am 15.9 NNW 13 20 999.0 - 1.0 - Cloudy 8 - - - -
08/09:00am 14.9 NW 5 10 999.6 - 3.4 Rain Cloudy 2 - - - -
08/08:45am 14.4 W 4 7 1000.2 - 2.6 - Partly cloudy 3 - - - -
08/08:30am 14.3 W 5 7 1000.4 - 1.8 - Partly cloudy 4 - - - -
08/08:17am 14.2 WNW 5 7 1000.7 - 1.0 - Partly cloudy 5 - - - -
08/08:00am 14.0 W 3 6 1000.8 - 0.2 - Partly cloudy 8 - - - -
08/07:30am 14.3 NW 5 8 1000.9 - 0.0 - Cloudy 10 - - - -
08/07:00am 14.5 W 4 7 1001.4 - 0.0 - Cloudy 10 - - - -
08/06:30am 13.6 NNW 4 8 1001.2 - 0.0 - Cloudy 10 - - - -
08/06:00am 12.4 NNW 4 7 1001.9 - 0.0 - Cloudy 10 - - - -
08/05:30am 12.6 W 3 6 1002.5 - 0.0 - Cloudy 10 - - - -
08/05:24am 12.7 W 3 6 1002.8 - 0.0 - Cloudy 10 - - - -
08/05:00am 12.4 WNW 4 6 1003.2 - 0.0 - Cloudy 10 - - - -
08/04:30am 11.9 W 2 5 1003.5 - 0.0 - Partly cloudy 10 - - - -
08/04:00am 12.0 W 5 8 1004.3 - 0.0 - Cloudy 10 - - - -
08/03:30am 12.2 W 5 9 1004.6 - 0.0 - Partly cloudy 10 - - - -
08/03:00am 12.5 W 5 9 1005.1 - 0.0 - Cloudy 10 - - - -
08/02:30am 12.5 NW 7 12 1005.7 - 0.0 - Partly cloudy 10 - - - -
08/02:00am 12.8 NW 8 15 1006.7 - 0.0 - Partly cloudy 10 - - - -
08/01:30am 12.8 NW 7 13 1007.1 - 0.0 - - 10 - - - -
08/01:00am 12.8 WNW 3 6 1007.6 - 0.0 - - 10 - - - -
08/12:30am 12.7 N 5 7 1008.1 - 0.0 - - 10 - - - -
08/12:00am 13.3 WNW 5 9 1008.0 - 0.0 - - 10 - - - -
 
Date/Time
EDT
Temp
°C
Wind Pressure Rain since
9am
mm
Weather Cloud Vis
km
Sea
Height
m
Swell
Dir  Spd
kts
Gust
kts
hPa Trend Height
m
Period
s
Dir
07/11:30pm 13.9 NNW 7 11 1008.6 - 0.0 - - 10 - - - -
07/11:00pm 14.4 NNW 5 8 1008.1 - 0.0 - - 10 - - - -
07/10:30pm 15.3 NW 6 8 1008.3 - 0.0 - - 10 - - - -
07/10:00pm 15.5 W 5 8 1008.7 - 0.0 - - 10 - - - -
07/09:30pm 15.7 W 5 8 1009.0 - 0.0 - - 10 - - - -
07/09:00pm 16.2 WNW 6 9 1009.1 - 0.0 - - 10 - - - -
07/08:30pm 16.8 WNW 6 10 1009.1 - 0.0 - - 10 - - - -
07/08:00pm 17.5 W 8 15 1009.0 - 0.0 - - 10 - - - -
07/07:30pm 18.5 W 7 11 1008.9 - 0.0 - - 10 - - - -
07/07:00pm 19.2 W 8 16 1009.1 - 0.0 - - 10 - - - -
07/06:30pm 19.5 W 8 14 1009.2 - 0.0 - - 10 - - - -
07/06:00pm 19.1 W 12 19 1009.3 - 0.0 - - 10 - - - -
07/05:30pm 19.5 WSW 10 19 1009.4 - 0.0 - Partly cloudy 10 - - - -
07/05:00pm 19.7 WNW 12 20 1009.6 - 0.0 - Partly cloudy 10 - - - -
07/04:30pm 19.2 WNW 12 20 1010.0 - 0.0 - Cloudy 10 - - - -
07/03:30pm 20.8 CALM 0 0 1010.0 - 0.0 - Partly cloudy - - - - -
07/03:00pm 20.3 WNW 11 18 1009.9 - 0.0 - Cloudy - - - - -
07/02:30pm 20.6 NW 10 15 1010.1 - 0.0 - Partly cloudy 10 - - - -
07/02:00pm 19.6 NE 9 11 1010.4 - 0.0 - Partly cloudy 10 - - - -
07/01:30pm 19.7 ENE 12 16 1010.8 - 0.0 - Partly cloudy 10 - - - -
07/01:00pm 20.5 NE 12 16 1011.1 - 0.0 - Partly cloudy 10 - - - -
07/12:30pm 20.9 NE 11 15 1011.6 - 0.0 - Cloudy 10 - - - -
07/12:00pm 20.3 NE 11 13 1011.8 - 0.0 - Partly cloudy 10 - - - -
07/11:30am 19.7 ENE 9 13 1012.2 - 0.0 - Partly cloudy 10 - - - -
07/11:00am 19.6 N 6 10 1012.3 - 0.0 - Partly cloudy 10 - - - -
07/10:30am 18.4 N 5 8 1012.6 - 0.0 - - 10 - - - -
07/10:00am 18.1 NNW 5 7 1012.8 - 0.0 - - 10 - - - -
07/09:30am 17.9 NNW 5 7 1012.9 - 0.0 - - 10 - - - -
07/09:00am 17.0 WNW 5 7 1012.9 - 0.0 Fine Partly cloudy 25 - - - -
07/08:30am 15.4 NW 5 7 1012.9 - 0.0 - - 10 - - - -
07/08:00am 14.3 NW 5 7 1012.7 - 0.0 - - 10 - - - -
07/07:30am 12.9 NW 4 6 1012.5 - 0.0 - - 10 - - - -
07/07:00am 11.7 NW 4 8 1012.4 - 0.0 - - 10 - - - -
07/06:30am 11.1 NNW 3 6 1012.1 - 0.0 - - 10 - - - -
07/06:00am 10.8 NNW 6 8 1011.7 - 0.0 - - 10 - - - -
07/05:30am 11.2 NW 5 7 1011.5 - 0.0 - - 10 - - - -
07/05:00am 11.2 W 3 5 1011.3 - 0.0 - - 10 - - - -
07/04:30am 11.8 WNW 5 8 1011.2 - 0.0 - - 10 - - - -
07/04:00am 11.8 WSW 2 4 1011.1 - 0.0 - - 10 - - - -
07/03:30am 12.3 W 3 5 1011.2 - 0.0 - - 10 - - - -
07/03:00am 12.5 NW 4 6 1011.2 - 0.0 - - 10 - - - -
07/02:30am 12.4 WNW 4 6 1011.5 - 0.0 - - 10 - - - -
07/02:00am 12.7 SW 1 6 1011.7 - 0.0 - Partly cloudy 10 - - - -
07/01:30am 13.4 NW 4 6 1011.8 - 0.0 - Partly cloudy 10 - - - -
07/01:00am 13.6 N 3 4 1011.9 - 0.0 - Partly cloudy 10 - - - -
07/12:30am 13.9 CALM 0 0 1012.0 - 0.0 - Partly cloudy 10 - - - -
07/12:00am 13.9 CALM 0 0 1012.0 - 0.0 - Mostly cloudy 10 - - - -
 
Date/Time
EDT
Temp
°C
Wind Pressure Rain since
9am
mm
Weather Cloud Vis
km
Sea
Height
m
Swell
Dir  Spd
kts
Gust
kts
hPa Trend Height
m
Period
s
Dir
06/11:30pm 13.8 CALM 0 0 1012.0 - 0.0 - Cloudy 10 - - - -
06/11:00pm 13.9 CALM 0 0 1012.1 - 0.0 - Cloudy 10 - - - -
06/10:30pm 14.1 S 3 5 1012.1 - 0.0 - Cloudy 10 - - - -
06/10:00pm 14.2 S 3 5 1012.1 - 0.0 - Cloudy 10 - - - -
06/09:30pm 14.2 E 3 4 1011.9 - 0.0 - Cloudy 10 - - - -
06/09:00pm 14.2 E 3 4 1011.5 - 0.0 - Cloudy 10 - - - -
06/08:30pm 14.3 CALM 0 3 1011.4 - 0.0 - Partly cloudy 10 - - - -
06/08:00pm 14.4 ESE 4 7 1010.9 - 0.0 - Cloudy 10 - - - -
06/07:30pm 14.5 SE 4 7 1010.4 - 0.0 - Partly cloudy 10 - - - -
06/07:00pm 14.9 SE 5 9 1009.9 - 0.0 - Cloudy 10 - - - -
06/06:30pm 14.6 SSE 8 13 1009.5 - 0.0 - Cloudy 10 - - - -
06/06:00pm 14.8 S 9 17 1009.0 - 0.0 - Cloudy 10 - - - -
06/05:30pm 15.2 S 12 19 1008.6 - 0.0 - Partly cloudy 10 - - - -
06/05:00pm 15.2 S 12 20 1008.3 - 0.0 - Partly cloudy 10 - - - -
06/04:30pm 16.4 S 12 19 1007.8 - 0.0 - Partly cloudy 10 - - - -
06/04:09pm 16.3 SSE 15 26 1007.6 - 0.0 - - 10 - - - -
06/04:00pm 16.6 SSE 13 22 1007.6 - 0.0 - - 10 - - - -
06/03:31pm 16.3 S 15 28 1007.6 - 0.0 - Partly cloudy 10 - - - -
06/03:30pm 16.7 S 14 27 1007.5 - 0.0 - Partly cloudy 10 - - - -
06/03:18pm 18.2 S 15 28 1007.3 - 0.0 - Partly cloudy 10 - - - -
06/03:00pm 21.0 ENE 7 11 1006.8 - 0.0 - Mostly cloudy 10 - - - -
06/02:30pm 20.3 NNE 9 14 1006.2 - 0.0 - Partly cloudy 10 - - - -
06/02:00pm 21.1 NNE 12 17 1006.2 - 0.0 - Partly cloudy 10 - - - -
06/01:30pm 20.6 N 8 13 1006.4 - 0.0 - - 10 - - - -
06/01:00pm 20.6 N 7 10 1006.9 - 0.0 - Partly cloudy 10 - - - -
06/12:30pm 20.4 NW 7 14 1007.6 - 0.0 - Partly cloudy 10 - - - -
06/12:00pm 19.4 NNW 8 12 1007.7 - 0.0 - Mostly clear 10 - - - -
06/11:30am 19.8 NW 6 10 1008.0 - 0.0 - Partly cloudy 10 - - - -
06/11:00am 18.6 NW 7 10 1008.3 - 0.0 - Partly cloudy 10 - - - -
06/10:30am 17.9 NW 7 11 1008.7 - 0.0 - - 10 - - - -
06/10:00am 17.1 NW 5 6 1009.0 - 0.0 - - 10 - - - -
06/09:34am 16.6 WSW 3 7 1009.3 - 0.0 - Partly cloudy 10 - - - -
06/09:30am 16.6 SW 3 6 1009.4 - 0.0 - Partly cloudy 10 - - - -
06/09:00am 15.8 S 1 5 1009.7 - 0.4 Rain Mostly cloudy 8 - - - -
06/08:30am 15.4 SSW 5 7 1010.2 - 0.4 - Partly cloudy 10 - - - -
06/08:00am 15.1 SSW 6 9 1010.1 - 0.4 - Partly cloudy 10 - - - -
06/07:30am 15.0 S 4 6 1009.8 - 0.4 - Partly cloudy 10 - - - -
06/07:00am 14.7 SSE 4 5 1010.2 - 0.4 - Partly cloudy 10 - - - -
06/06:30am 14.2 S 1 4 1009.9 - 0.4 - Cloudy 10 - - - -
06/06:00am 14.2 SSW 1 4 1009.9 - 0.4 - Cloudy 9 - - - -
06/05:30am 14.0 E 3 5 1009.8 - 0.4 - Cloudy 10 - - - -
06/05:00am 13.8 ESE 4 6 1009.7 - 0.4 - Cloudy 10 - - - -
06/04:30am 13.6 WSW 1 3 1010.2 - 0.4 - Cloudy 10 - - - -
06/04:00am 13.5 SSE 1 5 1010.4 - 0.2 - Cloudy 8 - - - -
06/03:47am 13.3 SSW 1 3 1010.2 - 0.2 - Cloudy 7 - - - -
06/03:31am 13.4 S 3 4 1010.6 - 0.2 - Cloudy 5 - - - -
06/03:30am 13.3 S 2 4 1010.6 - 0.2 - Cloudy 5 - - - -
06/03:14am 13.5 E 5 8 1010.9 - 0.0 - Cloudy 5 - - - -
06/03:00am 13.6 E 5 9 1010.9 - 0.0 - Cloudy 6 - - - -
06/02:30am 14.1 E 6 11 1011.2 - 0.0 - Cloudy 10 - - - -
06/02:00am 14.2 E 6 11 1011.6 - 0.0 - Cloudy 10 - - - -
06/01:30am 14.2 E 6 9 1012.0 - 0.0 - Partly cloudy 10 - - - -
06/01:00am 14.3 ESE 6 11 1011.9 - 0.0 - Partly cloudy 10 - - - -
06/12:30am 14.3 SE 6 11 1012.4 - 0.0 - Cloudy 10 - - - -
06/12:00am 14.0 SSE 6 12 1013.0 - 0.0 - Cloudy 10 - - - -
 
Date/Time
EDT
Temp
°C
Wind Pressure Rain since
9am
mm
Weather Cloud Vis
km
Sea
Height
m
Swell
Dir  Spd
kts
Gust
kts
hPa Trend Height
m
Period
s
Dir
05/11:30pm 14.4 SE 6 9 1013.5 - 0.0 - Cloudy 10 - - - -
05/11:00pm 14.5 SSE 6 12 1013.6 - 0.0 - Cloudy 10 - - - -
05/10:30pm 14.5 SSE 7 11 1013.4 - 0.0 - Cloudy 10 - - - -
05/10:00pm 14.6 SSE 7 11 1012.8 - 0.0 - Cloudy 10 - - - -
05/09:30pm 14.7 SSE 6 13 1012.6 - 0.0 - Cloudy 10 - - - -
05/09:00pm 14.9 SSE 8 13 1012.2 - 0.0 - Cloudy 10 - - - -
05/08:50pm 14.9 SSE 9 17 1012.2 - 0.0 - Cloudy 10 - - - -
05/08:30pm 15.0 SSE 8 14 1012.0 - 0.0 - Cloudy 10 - - - -
05/08:00pm 15.0 SSE 9 15 1011.2 - 0.0 - Partly cloudy 10 - - - -
05/07:56pm 15.0 SSE 9 15 1011.3 - 0.0 - Partly cloudy 10 - - - -
05/07:30pm 15.3 SSE 11 19 1010.4 - 0.0 - Partly cloudy 10 - - - -
05/07:00pm 16.1 S 13 22 1009.6 - 0.0 - Partly cloudy 10 - - - -
05/06:30pm 18.4 S 11 16 1009.0 - 0.0 - Partly cloudy 10 - - - -
05/06:00pm 19.1 SE 7 13 1008.8 - 0.0 - - 10 - - - -
05/05:30pm 19.4 ESE 8 14 1008.0 - 0.0 - - 10 - - - -
05/05:00pm 19.6 ESE 8 14 1007.4 - 0.0 - - 10 - - - -
05/04:30pm 19.5 SSE 8 15 1007.1 - 0.0 - Partly cloudy 10 - - - -
05/04:00pm 20.5 SSE 8 19 1006.9 - 0.0 - Partly cloudy 10 - - - -
05/03:30pm 19.7 S 10 17 1006.2 - 0.0 - - 10 - - - -
05/03:00pm 21.0 SSE 9 19 1005.7 - 0.0 - - 10 - - - -
05/02:30pm 20.4 SSE 11 20 1005.2 - 0.0 - - 10 - - - -
05/02:00pm 21.2 SSE 10 17 1004.8 - 0.0 - - 10 - - - -
05/01:30pm 22.6 S 11 19 1004.4 - 0.0 - - 10 - - - -
05/01:00pm 23.7 S 9 13 1004.0 - 0.0 - - 10 - - - -
05/12:30pm 24.2 WSW 5 9 1003.6 - 0.0 - - 10 - - - -
05/12:00pm 24.4 W 7 16 1003.0 - 0.0 - - 10 - - - -
05/11:30am 24.2 NNW 8 14 1002.9 - 0.0 - - 10 - - - -

Other Formats:

Comma delimited format used in spreadsheet applications
http://www.bom.gov.au/fwo/IDT60701/IDT60701.95981.axf

JavaScript Object Notation format (JSON) in row-major order
http://www.bom.gov.au/fwo/IDT60701/IDT60701.95981.json